Time;durP1;ratioP1;P1;durP2;ratioP2;P2;SDS_P1;SDS_P2;PMS_P1;PMS_P2;Temp;Humidity;BMP_temperature;BMP_pressure;BME280_temperature;BME280_humidity;BME280_pressure;Samples;Min_cycle;Max_cycle;Signal;HPM_P1;HPM_P2
2022/09/29 00:02:24;;;;;;;3.33;3.07;;;12.60;54.30;;;;;;5061982;28;20928;-87
2022/09/29 00:04:52;;;;;;;5.60;4.23;;;12.70;54.00;;;;;;5077301;28;20475;-89
2022/09/29 00:07:19;;;;;;;4.47;3.50;;;12.60;54.00;;;;;;5056664;28;20490;-89
2022/09/29 00:09:46;;;;;;;6.47;3.93;;;12.60;53.90;;;;;;5062092;28;20873;-88
2022/09/29 00:12:13;;;;;;;3.87;3.50;;;12.60;54.20;;;;;;5080135;28;20462;-88
2022/09/29 00:14:41;;;;;;;4.10;3.70;;;12.60;54.20;;;;;;5074359;28;20478;-89
2022/09/29 00:17:09;;;;;;;5.20;3.30;;;12.60;54.30;;;;;;5072346;28;20794;-87
2022/09/29 00:19:36;;;;;;;7.50;4.40;;;12.60;54.10;;;;;;5084363;28;20452;-88
2022/09/29 00:22:03;;;;;;;6.10;4.30;;;12.70;54.00;;;;;;5076296;28;20457;-87
2022/09/29 00:24:30;;;;;;;16.83;5.43;;;12.70;54.30;;;;;;5074208;28;20472;-88
2022/09/29 00:26:57;;;;;;;8.23;4.30;;;12.60;54.60;;;;;;5076226;28;20452;-88
2022/09/29 00:29:24;;;;;;;6.77;4.70;;;12.70;55.10;;;;;;5063636;28;20445;-90
2022/09/29 00:31:53;;;;;;;5.13;4.63;;;12.70;54.70;;;;;;5077831;28;20440;-88
2022/09/29 00:34:20;;;;;;;8.67;4.93;;;12.60;54.50;;;;;;5078371;28;20526;-87
2022/09/29 00:36:47;;;;;;;11.07;5.27;;;12.60;54.80;;;;;;5077499;28;20459;-89
2022/09/29 00:39:14;;;;;;;12.00;5.57;;;12.50;55.10;;;;;;5077509;28;20478;-88
2022/09/29 00:41:42;;;;;;;9.83;6.10;;;12.60;55.10;;;;;;5075771;28;20511;-87
2022/09/29 00:44:42;;;;;;;11.60;5.20;;;12.50;55.10;;;;;;5075355;28;20479;-89
2022/09/29 00:47:15;;;;;;;16.37;6.13;;;12.50;55.30;;;;;;5084267;28;20480;-88
2022/09/29 00:49:45;;;;;;;7.80;5.87;;;12.40;56.10;;;;;;5075195;28;20538;-88
2022/09/29 00:52:16;;;;;;;6.93;5.40;;;12.40;56.20;;;;;;5077641;28;20460;-88
2022/09/29 00:54:48;;;;;;;21.27;6.77;;;12.40;56.30;;;;;;5060951;28;20472;-87
2022/09/29 00:57:19;;;;;;;31.83;7.20;;;12.40;56.70;;;;;;5050961;28;20510;-88
2022/09/29 00:59:49;;;;;;;8.80;5.10;;;12.40;56.90;;;;;;5061379;28;20441;-87
2022/09/29 01:02:19;;;;;;;11.37;5.93;;;12.40;56.90;;;;;;5081377;28;20498;-88
2022/09/29 01:04:47;;;;;;;12.13;5.80;;;12.40;56.70;;;;;;5041157;28;20543;-88
2022/09/29 01:07:15;;;;;;;7.50;5.67;;;12.10;57.80;;;;;;5058527;28;20428;-88
2022/09/29 01:09:44;;;;;;;8.10;6.00;;;11.90;58.30;;;;;;5052183;28;20455;-88
2022/09/29 01:12:11;;;;;;;12.20;5.87;;;12.00;58.10;;;;;;5073707;28;20452;-88
2022/09/29 01:14:39;;;;;;;8.73;5.33;;;12.00;57.80;;;;;;5074687;28;21056;-89
2022/09/29 01:17:06;;;;;;;9.03;5.60;;;12.10;57.40;;;;;;5079772;28;20448;-88
2022/09/29 01:19:43;;;;;;;12.17;5.67;;;12.20;57.00;;;;;;5075480;28;20455;-88
2022/09/29 01:22:23;;;;;;;7.13;4.90;;;12.20;57.00;;;;;;5077141;28;21138;-90
2022/09/29 01:25:03;;;;;;;18.43;5.20;;;12.40;56.70;;;;;;5068249;28;20472;-87
2022/09/29 01:27:56;;;;;;;7.43;5.40;;;12.50;56.40;;;;;;5075551;28;21250;-90
2022/09/29 01:30:40;;;;;;;8.80;4.53;;;12.50;56.60;;;;;;5071663;28;20452;-88
2022/09/29 01:33:22;;;;;;;6.67;5.60;;;12.50;56.60;;;;;;5077376;28;20794;-87
2022/09/29 01:36:00;;;;;;;5.57;5.00;;;12.40;56.60;;;;;;5076652;28;20448;-87
2022/09/29 01:38:39;;;;;;;9.17;5.73;;;12.40;57.00;;;;;;5075652;28;20444;-91
2022/09/29 01:41:13;;;;;;;9.50;5.83;;;12.60;57.10;;;;;;5076926;28;20464;-88
2022/09/29 01:43:47;;;;;;;7.93;5.80;;;12.60;57.00;;;;;;5077591;28;20478;-87
2022/09/29 01:46:21;;;;;;;16.70;6.57;;;12.60;57.40;;;;;;5082738;28;20447;-88
2022/09/29 01:48:52;;;;;;;10.40;7.43;;;12.70;57.20;;;;;;5073119;28;20450;-89
2022/09/29 01:51:23;;;;;;;11.00;7.13;;;12.70;57.10;;;;;;5081214;28;20448;-89
2022/09/29 01:53:53;;;;;;;18.23;8.00;;;12.60;56.60;;;;;;5073946;28;20932;-88
2022/09/29 01:56:25;;;;;;;18.30;8.23;;;12.60;57.20;;;;;;5058035;28;20454;-87
2022/09/29 01:58:56;;;;;;;15.43;7.87;;;12.60;57.60;;;;;;5041447;28;20445;-89
2022/09/29 02:01:30;;;;;;;18.13;8.07;;;12.50;57.80;;;;;;5067591;28;20567;-88
2022/09/29 02:04:01;;;;;;;12.23;7.70;;;12.60;57.80;;;;;;5047212;28;20565;-90
2022/09/29 02:06:35;;;;;;;54.20;9.10;;;12.60;57.60;;;;;;5059983;28;20453;-88
2022/09/29 02:09:08;;;;;;;14.07;6.73;;;12.60;58.50;;;;;;5059163;28;20452;-88
2022/09/29 02:11:41;;;;;;;51.90;9.53;;;12.40;58.00;;;;;;5060000;28;20523;-89
2022/09/29 02:14:14;;;;;;;53.00;8.90;;;12.20;57.80;;;;;;5049661;28;21006;-88
2022/09/29 02:16:47;;;;;;;35.17;8.13;;;11.90;58.80;;;;;;5065714;28;20506;-88
2022/09/29 02:19:18;;;;;;;12.87;5.80;;;11.90;58.80;;;;;;5082231;28;20456;-89
2022/09/29 02:21:46;;;;;;;19.83;6.90;;;12.10;58.60;;;;;;5074338;28;20544;-90
2022/09/29 02:24:13;;;;;;;37.23;7.40;;;12.20;58.00;;;;;;5076805;28;20506;-88
2022/09/29 02:26:41;;;;;;;46.00;8.60;;;11.80;57.80;;;;;;5048635;28;20459;-87
2022/09/29 02:29:09;;;;;;;45.83;7.67;;;11.10;59.70;;;;;;5065076;28;20505;-88
2022/09/29 02:31:38;;;;;;;26.40;8.90;;;10.70;61.30;;;;;;5063870;28;20444;-88
2022/09/29 02:34:08;;;;;;;13.83;6.93;;;10.50;62.50;;;;;;5063525;28;20468;-87
2022/09/29 02:36:48;;;;;;;26.37;8.73;;;10.70;62.70;;;;;;5074487;28;20440;-89
2022/09/29 02:39:26;;;;;;;14.63;7.53;;;11.20;61.70;;;;;;5070938;28;20455;-88
2022/09/29 02:42:02;;;;;;;20.37;7.17;;;11.60;60.60;;;;;;5061911;28;20536;-88
2022/09/29 02:44:41;;;;;;;28.13;10.33;;;11.90;59.70;;;;;;5053982;28;20966;-88
2022/09/29 02:47:27;;;;;;;18.50;8.00;;;12.10;59.00;;;;;;5054076;28;20454;-88
2022/09/29 02:50:16;;;;;;;28.97;7.77;;;11.90;59.10;;;;;;5073467;28;20470;-88
2022/09/29 02:52:51;;;;;;;20.17;7.80;;;12.00;59.20;;;;;;5067453;28;20446;-88
2022/09/29 02:55:20;;;;;;;24.07;8.60;;;12.10;58.60;;;;;;5054134;28;20467;-89
2022/09/29 02:57:51;;;;;;;61.87;11.17;;;12.20;58.60;;;;;;5055474;28;20441;-89
2022/09/29 03:00:20;;;;;;;206.10;17.70;;;12.10;58.90;;;;;;5056761;28;20808;-88
2022/09/29 03:02:47;;;;;;;19.20;8.50;;;12.10;59.50;;;;;;5076162;28;20459;-88
2022/09/29 03:05:17;;;;;;;54.53;10.03;;;12.10;58.80;;;;;;5060796;28;20486;-91
2022/09/29 03:07:44;;;;;;;188.17;17.20;;;11.90;59.00;;;;;;5073179;28;20447;-90
2022/09/29 03:10:13;;;;;;;186.47;19.60;;;11.40;60.00;;;;;;5071270;28;20440;-89
2022/09/29 03:12:40;;;;;;;227.57;18.10;;;11.50;60.20;;;;;;5063205;28;20444;-89
2022/09/29 03:15:11;;;;;;;114.17;12.10;;;11.40;60.10;;;;;;5055739;28;20476;-88
2022/09/29 03:17:38;;;;;;;44.83;8.53;;;11.20;61.00;;;;;;5070286;28;20564;-90
2022/09/29 03:20:06;;;;;;;49.90;12.23;;;11.20;61.80;;;;;;5072676;28;20447;-89
2022/09/29 03:22:35;;;;;;;110.47;14.50;;;11.50;61.00;;;;;;5072613;28;20548;-88
2022/09/29 03:25:03;;;;;;;107.90;12.07;;;11.50;60.40;;;;;;5045771;28;20488;-88
2022/09/29 03:27:30;;;;;;;146.63;13.10;;;11.20;60.90;;;;;;5064317;28;20447;-90
2022/09/29 03:29:57;;;;;;;63.93;10.03;;;10.90;61.30;;;;;;5072525;28;20852;-88
2022/09/29 03:32:24;;;;;;;42.90;9.73;;;10.70;63.10;;;;;;5073799;28;20578;-87
2022/09/29 03:34:51;;;;;;;204.47;17.00;;;10.60;63.50;;;;;;5073882;28;20821;-88
2022/09/29 03:37:18;;;;;;;124.63;12.80;;;10.80;63.00;;;;;;5079618;28;20462;-87
2022/09/29 03:39:47;;;;;;;110.03;14.00;;;11.10;62.00;;;;;;5068141;28;20440;-88
2022/09/29 03:42:14;;;;;;;149.10;15.03;;;11.00;62.10;;;;;;5076717;28;20910;-88
2022/09/29 03:44:41;;;;;;;37.63;9.50;;;11.20;62.10;;;;;;5075173;28;20485;-88
2022/09/29 03:47:08;;;;;;;286.47;19.43;;;11.30;61.60;;;;;;5076967;28;20466;-88
2022/09/29 03:49:35;;;;;;;28.53;9.70;;;11.20;61.50;;;;;;5077033;28;20467;-88
2022/09/29 03:52:02;;;;;;;73.47;10.83;;;11.30;62.00;;;;;;5074374;28;20444;-88
2022/09/29 03:54:30;;;;;;;79.33;12.17;;;11.50;61.00;;;;;;5067390;28;20467;-91
2022/09/29 03:56:58;;;;;;;64.10;11.43;;;11.20;61.50;;;;;;5072248;28;20444;-91
2022/09/29 03:59:25;;;;;;;144.50;15.53;;;11.10;62.10;;;;;;5074831;28;20834;-87
2022/09/29 04:01:52;;;;;;;56.37;10.83;;;11.10;62.00;;;;;;5074072;28;20464;-90
2022/09/29 04:04:19;;;;;;;223.23;17.70;;;11.20;61.80;;;;;;5061315;28;20555;-88
2022/09/29 04:06:46;;;;;;;37.40;9.20;;;11.30;61.30;;;;;;5067576;28;20447;-90
2022/09/29 04:09:13;;;;;;;173.33;13.50;;;11.30;61.20;;;;;;5076414;28;20450;-87
2022/09/29 04:11:40;;;;;;;100.17;12.00;;;11.50;61.00;;;;;;5057646;28;21012;-88
2022/09/29 04:14:08;;;;;;;84.17;13.10;;;11.50;60.60;;;;;;5059776;28;20506;-88
2022/09/29 04:16:35;;;;;;;78.80;13.10;;;11.30;60.80;;;;;;5057594;28;20464;-88
2022/09/29 04:19:02;;;;;;;58.80;12.50;;;11.50;60.60;;;;;;5063532;28;20448;-90
2022/09/29 04:21:29;;;;;;;171.47;15.37;;;11.40;60.70;;;;;;5078279;28;20565;-88
2022/09/29 04:23:56;;;;;;;19.20;7.80;;;11.40;60.00;;;;;;5077720;28;20485;-88
2022/09/29 04:26:23;;;;;;;39.10;9.63;;;11.30;61.10;;;;;;5073156;28;20562;-88
2022/09/29 04:28:50;;;;;;;27.23;7.80;;;11.60;60.60;;;;;;5078660;28;20444;-88
2022/09/29 04:31:19;;;;;;;13.20;6.80;;;11.80;59.90;;;;;;5066458;28;20471;-89
2022/09/29 04:33:46;;;;;;;29.80;7.53;;;12.00;59.60;;;;;;5074072;28;20471;-91
2022/09/29 04:36:13;;;;;;;65.83;10.90;;;12.00;59.10;;;;;;5057158;28;20466;-88
2022/09/29 04:38:40;;;;;;;112.40;12.57;;;12.10;58.80;;;;;;5071763;28;20476;-90
2022/09/29 04:41:07;;;;;;;51.83;12.73;;;11.80;59.70;;;;;;5075503;28;20448;-87
2022/09/29 04:43:34;;;;;;;42.57;11.07;;;11.50;60.00;;;;;;5045363;28;20459;-87
2022/09/29 04:46:03;;;;;;;16.50;7.27;;;11.40;60.70;;;;;;5079292;28;20448;-90
2022/09/29 04:48:31;;;;;;;27.03;9.43;;;11.40;61.00;;;;;;5072477;28;20479;-88
2022/09/29 04:50:58;;;;;;;63.47;10.20;;;11.60;61.00;;;;;;5075154;28;20456;-90
2022/09/29 04:53:25;;;;;;;16.97;7.53;;;11.50;60.80;;;;;;5053174;28;20467;-86
2022/09/29 04:55:52;;;;;;;44.83;8.70;;;11.50;61.00;;;;;;5070046;28;20457;-88
2022/09/29 04:58:19;;;;;;;110.63;11.20;;;11.50;61.20;;;;;;5051257;28;20478;-87
2022/09/29 05:00:46;;;;;;;26.73;7.77;;;11.50;61.20;;;;;;5067968;28;20453;-88
2022/09/29 05:03:13;;;;;;;63.70;11.90;;;11.40;61.40;;;;;;5069201;28;20491;-90
2022/09/29 05:05:41;;;;;;;18.10;8.73;;;11.60;61.30;;;;;;5059773;28;20480;-90
2022/09/29 05:08:08;;;;;;;13.90;7.20;;;11.80;60.50;;;;;;5075830;28;20449;-89
2022/09/29 05:10:35;;;;;;;44.50;6.43;;;11.90;59.90;;;;;;5067789;28;20944;-90
2022/09/29 05:13:02;;;;;;;32.30;7.93;;;11.90;59.90;;;;;;5057610;28;20452;-90
2022/09/29 05:15:29;;;;;;;26.83;8.07;;;11.90;60.20;;;;;;5041587;28;20487;-88
2022/09/29 05:17:56;;;;;;;70.77;8.90;;;12.00;59.70;;;;;;5071845;28;21278;-88
2022/09/29 05:20:23;;;;;;;174.83;30.00;;;12.00;59.60;;;;;;5067555;28;20459;-87
2022/09/29 05:22:51;;;;;;;79.10;27.47;;;12.00;59.30;;;;;;5036493;28;20476;-91
2022/09/29 05:25:18;;;;;;;48.33;9.23;;;12.10;59.00;;;;;;5050634;28;20835;-89
2022/09/29 05:27:45;;;;;;;108.50;11.07;;;11.90;59.40;;;;;;5049675;28;20449;-88
2022/09/29 05:30:12;;;;;;;12.20;5.77;;;11.80;59.70;;;;;;5066098;28;21031;-89
2022/09/29 05:32:39;;;;;;;40.57;6.53;;;11.70;59.70;;;;;;5073680;28;20448;-89
2022/09/29 05:35:07;;;;;;;36.33;7.20;;;11.70;59.90;;;;;;5073281;28;20550;-86
2022/09/29 05:37:34;;;;;;;58.33;8.33;;;11.70;59.80;;;;;;5052709;28;20479;-92
2022/09/29 05:40:03;;;;;;;17.77;6.30;;;11.60;59.70;;;;;;5062784;28;20444;-94
2022/09/29 05:42:30;;;;;;;13.30;6.63;;;11.70;60.00;;;;;;5077272;28;20529;-88
2022/09/29 05:44:57;;;;;;;55.90;9.47;;;11.70;60.10;;;;;;5068297;28;20833;-91
2022/09/29 05:47:24;;;;;;;23.33;12.33;;;11.60;60.30;;;;;;5073121;28;21011;-88
2022/09/29 05:49:51;;;;;;;19.53;7.07;;;11.70;60.10;;;;;;5069754;28;20464;-87
2022/09/29 05:52:18;;;;;;;13.03;6.03;;;11.90;59.80;;;;;;5073402;28;20531;-93
2022/09/29 05:54:49;;;;;;;9.00;6.00;;;12.00;59.60;;;;;;5069513;28;20472;-87
2022/09/29 05:57:19;;;;;;;35.47;8.10;;;12.10;59.50;;;;;;5053904;28;20507;-88
2022/09/29 05:59:46;;;;;;;8.57;5.83;;;12.10;59.10;;;;;;5073599;28;20452;-90
2022/09/29 06:02:13;;;;;;;25.03;8.40;;;12.10;59.10;;;;;;5059254;28;20479;-88
2022/09/29 06:04:40;;;;;;;16.83;8.20;;;12.20;58.70;;;;;;5073397;28;20463;-90
2022/09/29 06:07:07;;;;;;;15.93;8.00;;;12.30;58.90;;;;;;5057036;28;20459;-88
2022/09/29 06:09:34;;;;;;;63.90;8.20;;;12.30;59.00;;;;;;5070975;28;20456;-88
2022/09/29 06:12:02;;;;;;;17.53;6.97;;;12.30;59.00;;;;;;5073943;28;20450;-89
2022/09/29 06:14:30;;;;;;;21.53;6.57;;;12.10;59.10;;;;;;5056978;28;20476;-92
2022/09/29 06:16:57;;;;;;;11.00;5.93;;;12.00;59.60;;;;;;5071017;28;20432;-90
2022/09/29 06:19:24;;;;;;;13.13;6.20;;;12.10;59.50;;;;;;5069028;28;20449;-88
2022/09/29 06:21:51;;;;;;;18.27;7.17;;;12.10;59.20;;;;;;5072238;28;21100;-91
2022/09/29 06:24:18;;;;;;;34.03;8.33;;;11.90;59.90;;;;;;5079480;27;20466;-90
2022/09/29 06:26:45;;;;;;;41.00;10.30;;;11.80;60.30;;;;;;5099730;27;20439;-89
2022/09/29 06:29:14;;;;;;;20.77;7.77;;;11.90;60.40;;;;;;5068866;28;20500;-89
2022/09/29 06:31:42;;;;;;;31.87;9.50;;;12.00;60.60;;;;;;5087927;27;20452;-89
2022/09/29 06:34:10;;;;;;;25.43;9.70;;;12.00;60.20;;;;;;5095413;27;20549;-89
2022/09/29 06:39:25;;;;;;;123.83;31.13;;;12.10;60.10;;;;;;5118268;27;20822;-89
2022/09/29 06:41:55;;;;;;;53.80;11.20;;;12.30;60.10;;;;;;5089769;27;20459;-88
2022/09/29 06:44:23;;;;;;;18.70;8.90;;;12.20;60.10;;;;;;5110206;27;20478;-90
2022/09/29 06:46:52;;;;;;;15.50;8.27;;;12.20;60.10;;;;;;5091233;27;20561;-89
2022/09/29 06:49:20;;;;;;;39.63;9.03;;;12.40;60.30;;;;;;5094929;27;20872;-87
2022/09/29 06:51:48;;;;;;;65.73;11.43;;;12.50;59.90;;;;;;5097208;28;20544;-87
2022/09/29 06:54:16;;;;;;;68.60;10.13;;;12.60;59.60;;;;;;5069446;28;21018;-88
2022/09/29 06:56:47;;;;;;;79.73;9.60;;;12.60;59.00;;;;;;5091547;27;20455;-88
2022/09/29 06:59:14;;;;;;;22.93;7.57;;;12.60;58.90;;;;;;5093726;28;20434;-92
2022/09/29 07:01:41;;;;;;;43.83;10.60;;;12.20;59.60;;;;;;5114534;27;20457;-90
2022/09/29 07:04:09;;;;;;;27.33;21.13;;;12.10;60.70;;;;;;5110961;27;20484;-88
2022/09/29 07:06:37;;;;;;;19.43;8.10;;;12.20;60.20;;;;;;5081910;28;21327;-90
2022/09/29 07:09:04;;;;;;;24.63;8.67;;;12.40;59.80;;;;;;5100688;28;20453;-88
2022/09/29 07:11:31;;;;;;;34.23;8.13;;;12.50;59.50;;;;;;5103096;27;20529;-89
2022/09/29 07:13:58;;;;;;;38.13;10.13;;;12.60;59.70;;;;;;5063678;28;20816;-87
2022/09/29 07:16:25;;;;;;;11.80;6.80;;;12.70;59.80;;;;;;5079296;28;20453;-89
2022/09/29 07:18:52;;;;;;;13.17;6.83;;;12.60;58.90;;;;;;5078211;28;20528;-90
2022/09/29 07:21:21;;;;;;;28.90;10.30;;;12.70;59.30;;;;;;5102727;28;20829;-88
2022/09/29 07:23:49;;;;;;;20.60;10.10;;;12.70;59.10;;;;;;5078076;27;20810;-89
2022/09/29 07:26:17;;;;;;;16.00;7.80;;;12.50;59.80;;;;;;5082044;28;20454;-89
2022/09/29 07:28:45;;;;;;;12.57;7.37;;;12.40;59.90;;;;;;5081251;28;20492;-88
2022/09/29 07:31:14;;;;;;;12.60;7.97;;;12.50;60.70;;;;;;5093756;28;20456;-89
2022/09/29 07:33:41;;;;;;;15.60;8.07;;;12.40;60.70;;;;;;5078229;28;20534;-88
2022/09/29 07:36:08;;;;;;;16.30;8.60;;;12.60;60.90;;;;;;5076636;28;20458;-88
2022/09/29 07:38:37;;;;;;;20.80;11.10;;;12.60;60.60;;;;;;5109780;27;20557;-88
2022/09/29 07:41:06;;;;;;;14.90;7.93;;;12.80;61.10;;;;;;5079363;28;20450;-89
2022/09/29 07:43:34;;;;;;;19.30;9.50;;;12.90;60.50;;;;;;5070123;28;20484;-88
2022/09/29 07:46:01;;;;;;;10.90;7.20;;;13.00;60.50;;;;;;5100965;28;20434;-90
2022/09/29 07:48:30;;;;;;;10.80;6.30;;;13.00;59.80;;;;;;5087737;28;20446;-88
2022/09/29 07:51:02;;;;;;;13.17;8.40;;;13.00;59.20;;;;;;5086256;28;20439;-87
2022/09/29 07:53:29;;;;;;;15.30;7.23;;;13.00;59.70;;;;;;5099202;28;20448;-88
2022/09/29 07:56:02;;;;;;;15.60;7.53;;;13.10;59.70;;;;;;5103067;28;20499;-89
2022/09/29 07:58:31;;;;;;;12.60;7.70;;;13.10;59.50;;;;;;5079295;28;20439;-89
2022/09/29 08:00:58;;;;;;;15.70;8.17;;;12.80;60.10;;;;;;5080656;28;20559;-87
2022/09/29 08:03:25;;;;;;;22.60;13.80;;;12.80;60.70;;;;;;5061450;28;20992;-88
2022/09/29 08:05:52;;;;;;;10.57;7.40;;;13.00;60.90;;;;;;5097421;28;20445;-91
2022/09/29 08:08:19;;;;;;;14.63;7.10;;;13.10;60.80;;;;;;5093429;28;20439;-88
2022/09/29 08:10:47;;;;;;;11.63;6.50;;;13.30;60.20;;;;;;5120615;28;20967;-89
2022/09/29 08:13:16;;;;;;;16.00;8.47;;;13.50;59.90;;;;;;5098444;28;20510;-90
2022/09/29 08:15:43;;;;;;;15.83;8.13;;;13.40;59.80;;;;;;5113044;28;21165;-88
2022/09/29 08:18:09;;;;;;;16.30;13.03;;;13.50;59.70;;;;;;5077031;28;20858;-89
2022/09/29 08:20:37;;;;;;;15.50;10.70;;;13.40;59.60;;;;;;5086656;27;20457;-88
2022/09/29 08:23:04;;;;;;;12.53;7.47;;;13.30;59.90;;;;;;5119868;27;20996;-88
2022/09/29 08:25:32;;;;;;;16.03;11.80;;;13.30;60.10;;;;;;5083184;27;20967;-90
2022/09/29 08:27:59;;;;;;;13.73;9.40;;;13.50;59.90;;;;;;5098052;27;20449;-88
2022/09/29 08:30:27;;;;;;;13.57;8.30;;;13.40;59.90;;;;;;5087188;27;20465;-89
2022/09/29 08:32:55;;;;;;;11.57;7.90;;;13.20;59.90;;;;;;5069407;27;20442;-88
2022/09/29 08:35:22;;;;;;;14.00;8.60;;;12.80;61.20;;;;;;5097424;27;21064;-88
2022/09/29 08:37:49;;;;;;;18.10;9.30;;;12.80;61.80;;;;;;5086199;27;20816;-88
2022/09/29 08:40:17;;;;;;;16.77;8.33;;;12.80;61.80;;;;;;5062985;27;20863;-90
2022/09/29 08:42:54;;;;;;;12.73;7.60;;;12.90;61.20;;;;;;5096362;27;20477;-89
2022/09/29 08:45:28;;;;;;;15.13;8.90;;;13.10;61.50;;;;;;5100747;27;20469;-88
2022/09/29 08:47:59;;;;;;;18.20;10.03;;;13.10;61.20;;;;;;5100837;27;20460;-88
2022/09/29 08:50:31;;;;;;;28.80;9.40;;;13.40;60.90;;;;;;5117249;27;20454;-90
2022/09/29 08:53:05;;;;;;;16.73;8.93;;;13.50;60.80;;;;;;5096042;27;20458;-88
2022/09/29 08:55:40;;;;;;;18.90;10.87;;;13.50;59.80;;;;;;5096707;27;20469;-89
2022/09/29 08:58:12;;;;;;;16.10;9.40;;;13.40;60.10;;;;;;5083483;27;20474;-88
2022/09/29 09:00:51;;;;;;;21.13;10.33;;;13.40;60.80;;;;;;5102484;27;20453;-89
2022/09/29 09:03:46;;;;;;;13.43;9.10;;;13.30;60.70;;;;;;5083566;27;20504;-89
2022/09/29 09:06:26;;;;;;;15.37;8.60;;;13.40;61.30;;;;;;5035285;27;20616;-88
2022/09/29 09:09:12;;;;;;;14.53;8.13;;;13.50;60.60;;;;;;5115357;27;20809;-89
2022/09/29 09:12:00;;;;;;;19.83;12.80;;;13.50;60.80;;;;;;5082854;27;20872;-88
2022/09/29 09:14:56;;;;;;;16.57;8.63;;;13.80;61.00;;;;;;5091694;27;20477;-90
2022/09/29 09:17:35;;;;;;;13.60;7.87;;;14.00;60.10;;;;;;5043208;27;20454;-88
2022/09/29 09:20:25;;;;;;;13.33;8.73;;;13.90;59.60;;;;;;5087824;27;20446;-88
2022/09/29 09:22:56;;;;;;;11.57;8.23;;;14.00;59.80;;;;;;5078009;27;20472;-88
2022/09/29 09:25:29;;;;;;;16.87;8.80;;;14.20;59.50;;;;;;5092101;27;20988;-90
2022/09/29 09:28:05;;;;;;;15.33;10.03;;;14.30;59.40;;;;;;5119248;27;20536;-88
2022/09/29 09:30:42;;;;;;;15.57;8.87;;;14.40;59.00;;;;;;5068518;27;20456;-90
2022/09/29 09:33:19;;;;;;;18.80;10.30;;;14.30;58.70;;;;;;5121590;27;20485;-87
2022/09/29 09:35:51;;;;;;;13.83;8.70;;;14.10;58.90;;;;;;5102669;27;20458;-90
2022/09/29 09:38:22;;;;;;;12.53;9.17;;;14.00;59.50;;;;;;5090977;27;20460;-90
2022/09/29 09:40:53;;;;;;;12.00;8.37;;;13.80;59.90;;;;;;5089609;27;20554;-88
2022/09/29 09:43:26;;;;;;;13.90;8.13;;;13.80;60.40;;;;;;5073122;27;20497;-88
2022/09/29 09:45:58;;;;;;;11.77;8.33;;;14.00;60.10;;;;;;5084710;27;20450;-88
2022/09/29 09:48:33;;;;;;;12.40;8.07;;;14.20;59.70;;;;;;5097176;27;20453;-88
2022/09/29 09:51:08;;;;;;;14.53;8.20;;;14.40;59.50;;;;;;5078359;28;20438;-88
2022/09/29 09:53:40;;;;;;;14.00;9.70;;;14.30;58.90;;;;;;5087740;27;20579;-88
2022/09/29 09:56:17;;;;;;;11.13;8.30;;;14.20;59.30;;;;;;5084401;28;20516;-88
2022/09/29 09:59:02;;;;;;;22.43;11.80;;;14.10;59.20;;;;;;5082226;27;20712;-90
2022/09/29 10:01:29;;;;;;;15.50;9.83;;;14.10;59.80;;;;;;5072497;27;20477;-88
2022/09/29 10:03:59;;;;;;;14.63;9.63;;;14.20;59.90;;;;;;5101079;27;20477;-87
2022/09/29 10:06:26;;;;;;;19.67;10.17;;;14.40;59.70;;;;;;5083472;27;20462;-87
2022/09/29 10:08:53;;;;;;;17.03;11.70;;;14.50;59.30;;;;;;5115508;27;20474;-88
2022/09/29 10:11:24;;;;;;;13.00;11.30;;;14.50;59.20;;;;;;5111227;27;20509;-89
2022/09/29 10:14:00;;;;;;;30.57;16.63;;;14.50;59.50;;;;;;5113631;27;20829;-90
2022/09/29 10:16:32;;;;;;;20.43;10.93;;;14.60;59.40;;;;;;5082454;27;20490;-90
2022/09/29 10:19:00;;;;;;;15.00;8.40;;;14.40;59.10;;;;;;5115411;27;20438;-87
2022/09/29 10:21:39;;;;;;;22.23;12.87;;;14.50;59.00;;;;;;5074105;27;20443;-89
2022/09/29 10:24:21;;;;;;;17.87;11.27;;;14.50;58.70;;;;;;5091797;27;20481;-91
2022/09/29 10:26:51;;;;;;;18.77;10.77;;;14.40;58.90;;;;;;5083718;27;20975;-89
2022/09/29 10:29:24;;;;;;;15.20;9.23;;;14.50;58.70;;;;;;5097375;27;20441;-88
2022/09/29 10:32:04;;;;;;;26.63;14.63;;;14.50;58.70;;;;;;5097998;27;20469;-89
2022/09/29 10:34:35;;;;;;;17.70;10.03;;;14.60;58.60;;;;;;5069860;28;20450;-89
2022/09/29 10:37:05;;;;;;;12.80;8.53;;;14.70;58.70;;;;;;5089363;27;20579;-88
2022/09/29 10:39:42;;;;;;;12.57;10.80;;;15.00;58.30;;;;;;5098232;27;20473;-88
2022/09/29 10:42:23;;;;;;;15.00;9.50;;;15.00;58.00;;;;;;5112200;27;20470;-87
2022/09/29 10:44:53;;;;;;;11.73;8.80;;;15.10;57.50;;;;;;5111628;27;20480;-90
2022/09/29 10:47:22;;;;;;;10.53;7.47;;;15.30;57.50;;;;;;5077138;28;20462;-88
2022/09/29 10:50:08;;;;;;;10.97;8.13;;;15.40;57.10;;;;;;5094727;28;20974;-88
2022/09/29 10:52:36;;;;;;;16.67;9.60;;;15.60;56.70;;;;;;5083689;27;20437;-89
2022/09/29 10:55:05;;;;;;;13.63;9.43;;;15.30;56.90;;;;;;5113174;27;20465;-88
2022/09/29 10:57:34;;;;;;;13.23;8.43;;;15.40;57.30;;;;;;5074857;27;20544;-89
2022/09/29 11:00:02;;;;;;;25.53;13.70;;;15.60;56.50;;;;;;5097343;28;20458;-87
2022/09/29 11:02:32;;;;;;;17.87;11.60;;;15.30;56.90;;;;;;5096241;28;20446;-90
2022/09/29 11:05:04;;;;;;;14.53;9.63;;;15.40;57.10;;;;;;5102968;28;20565;-89
2022/09/29 11:07:33;;;;;;;12.07;8.57;;;15.50;56.80;;;;;;5095461;28;20446;-89
2022/09/29 11:10:01;;;;;;;14.87;11.20;;;15.60;57.00;;;;;;5090211;28;20982;-89
2022/09/29 11:12:31;;;;;;;13.53;10.03;;;15.70;56.10;;;;;;5095454;28;20450;-89
2022/09/29 11:15:00;;;;;;;12.67;8.20;;;16.00;56.40;;;;;;5084939;28;20595;-92
2022/09/29 11:17:28;;;;;;;12.00;8.83;;;16.20;55.70;;;;;;5085961;28;20510;-88
2022/09/29 11:19:58;;;;;;;12.83;7.77;;;16.50;55.40;;;;;;5110314;27;20541;-88
2022/09/29 11:22:54;;;;;;;10.37;6.97;;;16.90;55.10;;;;;;5076710;28;20497;-90
2022/09/29 11:25:38;;;;;;;9.53;7.57;;;17.00;53.70;;;;;;5108622;28;20478;-88
2022/09/29 11:28:21;;;;;;;9.13;7.33;;;16.80;54.40;;;;;;5076890;28;20470;-90
2022/09/29 11:31:01;;;;;;;10.60;6.93;;;16.70;54.20;;;;;;5091775;28;20443;-90
2022/09/29 11:33:39;;;;;;;8.27;6.40;;;16.60;54.70;;;;;;5090878;28;20438;-90
2022/09/29 11:36:17;;;;;;;8.27;6.67;;;16.70;54.50;;;;;;5109408;28;20816;-89
2022/09/29 11:38:59;;;;;;;14.27;7.60;;;16.80;54.20;;;;;;5073093;28;20451;-90
2022/09/29 11:41:46;;;;;;;11.67;7.23;;;17.00;55.00;;;;;;5078293;27;20458;-90
2022/09/29 11:44:36;;;;;;;13.60;12.30;;;17.10;53.90;;;;;;5075326;28;20482;-90
2022/09/29 11:47:13;;;;;;;8.93;6.70;;;17.00;54.20;;;;;;5057930;28;20492;-90
2022/09/29 11:50:11;;;;;;;8.37;6.70;;;17.00;54.40;;;;;;5090961;28;20445;-91
2022/09/29 11:52:54;;;;;;;8.50;7.20;;;17.00;54.60;;;;;;5078977;28;21287;-90
2022/09/29 11:55:45;;;;;;;9.93;7.17;;;17.10;54.10;;;;;;5114095;27;20453;-90
2022/09/29 11:58:26;;;;;;;10.83;7.60;;;17.00;53.80;;;;;;5096513;27;20454;-91
2022/09/29 12:01:18;;;;;;;11.30;7.97;;;16.80;54.50;;;;;;5099164;27;21414;-90
2022/09/29 12:03:52;;;;;;;14.80;6.87;;;16.70;55.40;;;;;;5064319;27;20473;-91
2022/09/29 12:06:33;;;;;;;13.60;6.67;;;16.60;54.90;;;;;;5067019;27;20522;-91
2022/09/29 12:09:15;;;;;;;9.73;7.37;;;16.90;55.00;;;;;;5088266;27;20449;-90
2022/09/29 12:11:53;;;;;;;14.77;7.47;;;17.10;54.30;;;;;;5082135;27;20446;-91
2022/09/29 12:14:24;;;;;;;13.70;7.60;;;17.30;53.90;;;;;;5087217;27;20477;-91
2022/09/29 12:16:57;;;;;;;12.37;7.40;;;17.40;53.70;;;;;;5117162;27;20452;-91
2022/09/29 12:19:27;;;;;;;10.57;6.77;;;17.60;53.50;;;;;;5080777;27;20569;-91
2022/09/29 12:21:57;;;;;;;9.60;7.30;;;17.70;53.00;;;;;;5098942;27;20880;-91
2022/09/29 12:24:36;;;;;;;10.03;7.83;;;17.70;53.20;;;;;;5071234;27;20465;-91
2022/09/29 12:27:10;;;;;;;9.70;6.70;;;17.80;53.40;;;;;;5098905;27;21051;-91
2022/09/29 12:29:41;;;;;;;10.80;7.10;;;17.70;53.80;;;;;;5067850;27;20443;-91
2022/09/29 12:32:14;;;;;;;9.27;6.27;;;17.50;53.70;;;;;;5094931;27;20457;-91
2022/09/29 12:34:48;;;;;;;10.10;6.10;;;17.50;54.20;;;;;;5095810;27;20847;-91
2022/09/29 12:37:22;;;;;;;9.50;6.13;;;17.70;54.20;;;;;;5078492;27;20469;-91
2022/09/29 12:39:59;;;;;;;7.47;6.43;;;17.90;53.90;;;;;;5079157;27;20439;-92
2022/09/29 12:42:48;;;;;;;8.67;5.70;;;18.00;54.20;;;;;;5096538;27;20537;-92
2022/09/29 12:45:23;;;;;;;8.93;5.50;;;18.00;53.80;;;;;;5079066;28;20643;-90
2022/09/29 12:47:59;;;;;;;5.43;4.40;;;17.90;54.20;;;;;;5076148;27;20477;-91
2022/09/29 12:50:29;;;;;;;6.47;5.37;;;18.00;54.40;;;;;;5091747;27;20837;-91
2022/09/29 12:53:02;;;;;;;7.10;4.97;;;18.00;53.50;;;;;;5061692;27;20858;-90
2022/09/29 12:55:36;;;;;;;6.57;5.20;;;18.10;53.70;;;;;;5080327;27;20478;-91
2022/09/29 12:58:13;;;;;;;6.73;5.20;;;18.00;53.60;;;;;;5075742;27;20493;-90
2022/09/29 13:00:44;;;;;;;6.53;4.57;;;17.90;53.80;;;;;;5079432;27;20795;-90